Weather observations for the past three days for
Flora Municipal Airport
Imperial (Metric)
Date Time (cdt) Wind (mph) Vis. (mi.) Weather Sky Cond. Temperature (ºF) Relative Humidity Wind Chill (°F) Heat Index (°F) Pressure Precipitation (in)
Air Dwpt 6 hour altimeter (in) sea level (mb) 1 hr 3 hr 6 hr
Max. Min.
08 05:15 S 7 10.00 Fair CLR 48.2 41 76% 46 29.95 0.0
08 04:55 S 8 10.00 Fair CLR 48.2 41 76% 45 29.95 0.0
08 04:35 S 9 10.00 Fair CLR 48.2 41 76% 45 29.95 0.0
08 04:15 S 8 10.00 Fair CLR 48.2 41 76% 45 29.95 0.0
08 03:55 S 9 10.00 Fair CLR 48.2 41 76% 45 29.95 0.0
08 03:35 S 8 10.00 Fair CLR 48.2 41 76% 45 29.95 0.0
08 03:15 S 9 10.00 Fair CLR 50 41 71% 47 29.96 0.0
08 02:55 S 7 10.00 Fair CLR 48.2 41 76% 46 29.96 0.0
08 02:35 S 7 10.00 Fair CLR 48.2 41 76% 46 29.97 0.0
08 02:15 S 6 10.00 Fair CLR 48.2 41 76% 46 29.97 0.0
08 01:55 S 7 10.00 Fair CLR 50 41 71% 48 29.97 0.0
08 01:35 S 8 10.00 Fair CLR 50 41 71% 47 29.97 0.0
08 01:15 S 7 10.00 Fair CLR 50 41 71% 48 29.98 0.0
08 00:55 S 7 10.00 Fair CLR 50 41 71% 48 29.98 0.0
08 00:35 S 8 10.00 Fair CLR 50 41 71% 47 29.99 0.0
08 00:15 S 8 10.00 Fair CLR 51.8 41 67% 29.99 0.0
07 23:55 S 8 10.00 Fair CLR 51.8 41 67% 29.99 0.0
07 23:35 S 8 10.00 Fair CLR 51.8 41 67% 29.98 0.0
07 23:15 S 8 10.00 Fair CLR 51.8 41 67% 29.98 0.0
07 22:55 S 8 10.00 Fair CLR 51.8 41 67% 29.98 0.0
07 22:35 S 7 10.00 Fair CLR 51.8 42.8 72% 29.98 0.0
07 22:15 S 7 10.00 Fair CLR 51.8 42.8 72% 29.98 0.0
07 21:55 S 8 10.00 Fair CLR 53.6 42.8 67% 29.98 0.0
07 21:35 S 8 10.00 Fair CLR 53.6 42.8 67% 29.98 0.0
07 21:15 S 7 10.00 Fair CLR 53.6 42.8 67% 29.97 0.0
07 20:55 S 6 10.00 Fair CLR 53.6 42.8 67% 29.96 0.0
07 20:35 S 7 10.00 Fair CLR 55.4 41 59% 29.96 0.0
07 20:15 S 7 10.00 Fair CLR 55.4 41 59% 29.95 0.0
07 19:55 S 7 10.00 Fair CLR 57.2 42.8 59% 29.95 0.0
07 19:35 S 7 10.00 Fair CLR 59 41 51% 29.95 0.0
07 19:15 SW 7 10.00 Fair CLR 60.8 41 48% 29.95 0.0
07 18:55 SW 8 10.00 Fair CLR 62.6 39.2 42% 29.95 0.0
07 18:35 SW 9 10.00 Fair CLR 62.6 37.4 39% 29.95 0.0
07 18:15 SW 8 10.00 Fair CLR 64.4 37.4 37% 29.95 0.0
07 17:55 SW 12 10.00 Fair CLR 64.4 37.4 37% 29.96 0.0
07 17:35 SW 10 10.00 Fair CLR 64.4 37.4 37% 29.96 0.0
07 17:15 SW 10 10.00 Fair CLR 62.6 37.4 39% 29.97 0.0
07 16:55 W 8 10.00 Fair CLR 64.4 35.6 34% 29.97 0.0
07 16:35 W 13 10.00 Partly Cloudy SCT075 64.4 35.6 34% 29.97 0.0
07 16:15 SW 14 G 22 10.00 Partly Cloudy SCT075 64.4 37.4 37% 29.97 0.0
07 15:55 SW 9 10.00 Fair CLR 64.4 33.8 32% 29.98 0.0
07 15:35 SW 7 10.00 Fair CLR 64.4 35.6 34% 29.98 0.0
07 15:15 W 8 G 16 10.00 Partly Cloudy SCT075 64.4 33.8 32% 29.99 0.0
07 14:55 SW 10 G 17 10.00 Partly Cloudy SCT075 64.4 37.4 37% 30 0.0
07 14:35 SW 10 10.00 Fair CLR 62.6 35.6 37% 30 0.0
07 14:15 SW 10 10.00 Fair CLR 62.6 33.8 34% 30.01 0.0
07 13:55 NW 8 G 20 10.00 Fair CLR 62.6 33.8 34% 30.01 0.0
07 13:35 Calm 10.00 Fair CLR 62.6 32 32% 30.01 0.0
07 13:15 NW 7 10.00 Fair CLR 60.8 32 34% 30.02 0.0
07 12:55 W 7 10.00 Fair CLR 60.8 32 34% 30.03 0.0
07 12:35 SW 6 10.00 Fair CLR 60.8 33.8 36% 30.04 0.0
07 12:15 W 9 10.00 Fair CLR 60.8 32 34% 30.04 0.0
07 11:55 NW 6 10.00 Fair CLR 60.8 33.8 36% 30.04 0.0
07 11:35 NW 7 G 17 10.00 Fair CLR 59 33.8 39% 30.05 0.0
07 11:15 Calm 10.00 Fair CLR 59 32 36% 30.06 0.0
07 10:55 W 9 10.00 Fair CLR 59 32 36% 30.06 0.0
07 10:35 W 7 10.00 Fair CLR 57.2 32 39% 30.06 0.0
07 10:15 SW 7 10.00 Fair CLR 57.2 33.8 41% 30.06 0.0
07 09:55 SW 6 10.00 Fair CLR 57.2 35.6 44% 30.06 0.0
07 09:35 SW 6 10.00 Fair CLR 55.4 37.4 51% 30.07 0.0
07 09:15 S 5 10.00 Fair CLR 53.6 39.2 58% 30.07 0.0
07 08:55 S 5 10.00 Fair CLR 51.8 39.2 62% 30.06 0.0
07 08:35 S 5 10.00 Fair CLR 51.8 37.4 58% 30.06 0.0
07 08:15 S 5 10.00 Fair CLR 50 39.2 67% 49 30.06 0.0
07 07:55 SW 3 10.00 Fair CLR 48.2 41 76% 30.06 0.0
07 07:35 Calm 10.00 Fair CLR 46.4 39.2 76% 30.06 0.0
07 07:15 Calm 10.00 Fair CLR 44.6 41 87% 30.06 0.0
07 06:55 Calm 10.00 Fair CLR 42.8 0 0% 30.05 0.0
07 06:35 Calm 10.00 Fair CLR 41 0 0% 30.05 0.0
07 06:15 Calm 10.00 Fair CLR 39.2 0 0% 30.04 0.0
07 05:55 Calm 10.00 Fair CLR 39.2 0 0% 30.04 0.0
07 05:35 Calm 10.00 Fair CLR 39.2 0 0% 30.03 0.0
07 05:15 Calm 10.00 Fair CLR 39.2 0 0% 30.04 0.0
07 04:55 Calm 10.00 Fair CLR 39.2 39.2 100% 30.05 0.0
07 04:35 Calm 10.00 Fair CLR 41 39.2 93% 30.05 0.0
07 04:15 Calm 10.00 Fair CLR 41 39.2 93% 30.05 0.0
07 03:55 NW 3 10.00 Fair CLR 41 39.2 93% 30.04 0.0
07 03:35 NW 3 10.00 Fair CLR 42.8 39.2 87% 30.04 0.0
07 03:15 N 3 10.00 Fair CLR 42.8 39.2 87% 30.04 0.0
07 02:55 N 5 10.00 Fair CLR 42.8 39.2 87% 41 30.04 0.0
07 02:35 NW 5 10.00 Fair CLR 44.6 39.2 81% 43 30.04 0.0
07 02:15 N 5 10.00 Fair CLR 44.6 39.2 81% 43 30.03 0.0
07 01:55 N 5 10.00 Fair CLR 44.6 39.2 81% 43 30.03 0.0
07 01:35 N 5 10.00 Fair CLR 44.6 39.2 81% 43 30.04 0.0
07 01:15 NW 5 10.00 Fair CLR 46.4 39.2 76% 45 30.04 0.0
07 00:55 NW 5 10.00 Fair CLR 46.4 41 82% 45 30.04 0.0
07 00:35 NW 3 10.00 Fair CLR 48.2 41 76% 30.04 0.0
07 00:15 N 5 10.00 Fair CLR 46.4 41 82% 45 30.04 0.0
06 23:55 NW 5 10.00 Fair CLR 48.2 41 76% 47 30.03 0.0
06 23:35 N 5 10.00 Fair CLR 48.2 41 76% 47 30.03 0.0
06 23:15 NW 3 10.00 Fair CLR 48.2 41 76% 30.03 0.0
06 22:55 NW 3 10.00 Fair CLR 48.2 42.8 82% 30.03 0.0
06 22:15 NW 3 10.00 Fair CLR 50 41 71% 30.04 0.0
06 21:55 NW 3 10.00 Fair CLR 50 41 71% 30.03 0.0
06 21:35 NW 3 10.00 Fair CLR 50 42.8 76% 30.03 0.0
06 21:15 NW 3 10.00 Fair CLR 51.8 41 67% 30.02 0.0
06 20:55 Calm 10.00 Fair CLR 51.8 41 67% 30.01 0.0
06 20:35 NW 3 10.00 Fair CLR 53.6 42.8 67% 30 0.0
06 20:15 NW 3 10.00 Fair CLR 53.6 41 63% 30 0.0
06 19:55 NW 6 10.00 Fair CLR 55.4 41 59% 30 0.0
06 19:35 NW 8 10.00 Fair CLR 55.4 39.2 55% 30 0.0
06 19:15 NW 8 10.00 Fair CLR 57.2 39.2 51% 29.99 0.0
06 18:55 N 12 10.00 Fair CLR 59 39.2 48% 29.98 0.0
06 18:35 N 9 10.00 Partly Cloudy SCT060 59 39.2 48% 29.98 0.0
06 17:55 NW 7 10.00 Fair CLR 59 41 51% 29.98 0.0
06 17:35 N 9 10.00 Fair CLR 60.8 41 48% 29.99 0.0
06 17:15 NW 10 10.00 Fair CLR 60.8 41 48% 29.99 0.0
06 16:35 NW 5 10.00 Mostly Cloudy SCT065 BKN070 59 42.8 55% 29.99 0.0
06 16:15 NW 8 10.00 Overcast OVC065 57.2 44.6 63% 29.99 0.0
06 15:55 NW 10 10.00 Mostly Cloudy BKN065 57.2 44.6 63% 30 0.0
06 15:35 NW 10 10.00 Mostly Cloudy SCT045 BKN065 59 42.8 55% 30 0.0
06 15:15 W 9 10.00 Partly Cloudy SCT032 SCT043 59 44.6 59% 30 0.0
06 15:00 NW 7 10.00 Partly Cloudy SCT034 59 46.4 63% 30 0.0
06 14:35 NW 9 10.00 Partly Cloudy SCT028 SCT034 59 46.4 63% 29.99 0.0
06 14:15 NW 9 10.00 Mostly Cloudy SCT023 BKN031 57.2 46.4 67% 30 0.0
06 13:55 W 9 10.00 Partly Cloudy SCT025 SCT032 57.2 46.4 67% 30 0.0
06 13:10 NW 7 10.00 Fair CLR 55.4 46.4 72% 30.01 0.0
06 12:55 NW 8 10.00 Partly Cloudy SCT080 55.4 46.4 72% 30.01 0.0
06 12:30 NW 7 10.00 Partly Cloudy SCT080 SCT090 53.6 46.4 77% 30.01 0.0
06 12:20 W 7 10.00 Partly Cloudy SCT080 SCT085 53.6 46.4 77% 30.01 0.0
06 11:30 NW 8 10.00 Mostly Cloudy BKN080 53.6 48.2 82% 30 0.0
06 11:15 W 8 10.00 Partly Cloudy SCT080 53.6 46.4 77% 30 0.0
06 10:55 NW 10 10.00 Mostly Cloudy BKN080 53.6 44.6 72% 30 0.0
06 10:35 NW 10 10.00 Overcast OVC080 51.8 46.4 82% 30 0.0
06 10:15 W 10 10.00 Partly Cloudy SCT080 51.8 46.4 82% 30 0.0
06 09:55 NW 9 10.00 Partly Cloudy SCT080 SCT090 51.8 46.4 82% 29.99 0.0
06 09:35 NW 8 10.00 Partly Cloudy SCT070 SCT085 51.8 44.6 77% 29.99 0.0
06 09:15 NW 7 10.00 Partly Cloudy SCT070 51.8 46.4 82% 29.98 0.0
06 08:55 NW 8 10.00 Partly Cloudy SCT070 51.8 46.4 82% 29.97 0.0
06 08:35 NW 8 10.00 Fair CLR 50 46.4 88% 47 29.96 0.0
06 08:15 NW 8 10.00 Partly Cloudy SCT110 50 46.4 88% 47 29.96 0.0
06 07:55 NW 5 10.00 Mostly Cloudy BKN090 BKN110 48.2 46.4 94% 47 29.95 0.0
06 07:35 NW 7 10.00 Overcast OVC100 48.2 48.2 100% 46 29.96 0.0
06 06:55 NW 3 10.00 Overcast BKN100 OVC110 48.2 46.4 94% 29.93 0.0
06 06:35 NW 5 10.00 Overcast OVC110 46.4 46.4 100% 45 29.92 0.0
06 06:15 NW 5 10.00 Overcast OVC100 46.4 46.4 100% 45 29.92 0.0
06 05:55 NW 6 10.00 Mostly Cloudy BKN100 46.4 46.4 100% 44 29.93 0.0
06 05:35 W 7 10.00 Partly Cloudy SCT100 SCT120 46.4 46.4 100% 43 29.93 0.0
06 05:15 NW 5 10.00 Light Rain SCT065 BKN100 BKN120 46.4 46.4 100% 45 29.9 0.0
06 04:55 NW 6 10.00 Light Rain OVC100 46.4 46.4 100% 44 29.89 0.0
06 04:35 NW 5 10.00 Light Rain SCT045 OVC110 46.4 46.4 100% 45 29.89 0.0
06 04:15 NW 6 10.00 Light Rain SCT060 OVC100 46.4 46.4 100% 44 29.89 0.0
06 03:55 NW 5 10.00 Overcast SCT060 OVC100 46.4 46.4 100% 45 29.9 0.0 0.01
06 03:35 NW 6 10.00 Overcast OVC100 46.4 46.4 100% 44 29.88 0.0 0.01
06 03:15 NW 8 10.00 Overcast SCT055 OVC110 46.4 0 0% 43 29.87 0.0 0.01
06 02:55 NW 7 10.00 Mostly Cloudy BKN055 BKN120 46.4 0 0% 43 29.88 0.0
06 02:35 NW 6 10.00 Light Rain BKN055 BKN100 46.4 0 0% 44 29.87 0.0
06 02:15 NW 7 10.00 Light Rain SCT055 BKN100 BKN120 46.4 0 0% 43 29.89 0.0
06 01:55 NW 6 10.00 Light Rain SCT048 SCT060 BKN110 46.4 0 0% 44 29.88 0.0 0.01
06 01:35 N 8 10.00 Light Rain SCT050 SCT065 BKN075 46.4 0 0% 43 29.87 0.0 0.01
06 01:15 NW 3 10.00 Light Rain CLR 46.4 0 0% 29.88 0.0
06 00:55 N 7 10.00 Light Rain SCT044 SCT090 46.4 46.4 100% 43 29.88 0.0 0.03
06 00:35 N 7 10.00 Light Rain BKN044 BKN050 BKN060 46.4 46.4 100% 43 29.88 0.0 0.03
06 00:15 N 8 10.00 Rain BKN044 OVC050 46.4 44.6 93% 43 29.89 0.0 0.02
05 23:55 N 8 7.00 Rain SCT012 BKN043 OVC050 46.4 46.4 100% 43 29.88 0.0 0.09
05 23:35 N 5 10.00 Rain BKN040 OVC050 46.4 44.6 93% 45 29.88 0.0 0.04
05 23:15 N 9 7.00 Rain SCT034 BKN043 OVC050 46.4 44.6 93% 42 29.87 0.0 0.02
05 22:55 N 12 10.00 Light Rain BKN032 BKN043 OVC070 46.4 44.6 93% 42 29.88 0.0 0.04
05 22:35 N 14 G 21 10.00 Light Rain BKN030 BKN043 OVC050 46.4 44.6 93% 41 29.87 0.0 0.03
05 22:15 N 13 10.00 Light Rain SCT009 BKN013 OVC027 46.4 46.4 100% 41 29.89 0.0 0.01
05 21:55 N 14 7.00 Light Rain BKN007 OVC013 48.2 0 0% 43 29.86 0.0 0.11
05 21:35 NW 10 7.00 Rain BKN007 OVC011 48.2 0 0% 44 29.86 0.0 0.06
05 21:15 N 9 7.00 Rain BKN009 OVC019 48.2 0 0% 45 29.82 0.0 0.03
05 20:55 N 6 7.00 Rain BKN007 BKN011 OVC019 48.2 0 0% 46 29.83 0.0 0.24
05 20:35 NW 8 5.00 Rain BKN007 OVC011 48.2 0 0% 45 29.83 0.0 0.2
05 20:15 N 8 4.00 Heavy Rain Fog/Mist SCT008 BKN013 OVC027 46.4 0 0% 43 29.82 0.0 0.15
05 19:55 N 9 3.50 Heavy Rain Fog/Mist SCT006 BKN010 OVC027 46.4 0 0% 42 29.82 0.0 0.36
05 19:35 N 10 3.00 Heavy Rain Fog/Mist OVC008 46.4 0 0% 42 29.8 0.0 0.21
05 19:15 N 9 3.00 Heavy Rain Fog/Mist BKN008 OVC023 48.2 0 0% 45 29.8 0.0 0.08
05 18:55 N 12 4.00 Light Drizzle Fog/Mist SCT008 BKN019 OVC039 48.2 48.2 100% 44 29.81 0.0 0.01
05 18:35 N 12 7.00 Light Drizzle BKN008 OVC016 48.2 0 0% 44 29.8 0.0 0.01
05 18:15 N 10 3.00 Light Rain Fog/Mist BKN008 BKN012 OVC017 48.2 0 0% 44 29.8 0.0 0.01
05 17:55 N 9 7.00 Light Rain Fog/Mist SCT008 BKN016 OVC025 48.2 48.2 100% 45 29.81 0.0 0.18
05 17:35 N 13 G 21 5.00 Light Rain BKN008 BKN012 OVC018 50 0 0% 46 29.8 0.0 0.1
05 17:15 N 10 3.00 Light Rain Fog/Mist BKN008 OVC016 50 0 0% 46 29.81 0.0 0.05
05 16:55 N 9 2.00 Light Rain Fog/Mist OVC008 50 0 0% 47 29.8 0.0 0.12
05 16:35 N 10 3.50 Heavy Rain Fog/Mist SCT008 OVC014 50 50 100% 46 29.81 0.0 0.1
05 16:15 N 14 7.00 Light Rain Fog/Mist OVC016 50 48.2 94% 45 29.81 0.0 0.01
05 15:55 N 13 7.00 Light Rain BKN016 OVC024 50 50 100% 46 29.8 0.0 0.04
05 15:35 N 16 G 23 5.00 Light Rain Fog/Mist BKN013 OVC020 51.8 50 94% 29.8 0.0 0.04
05 15:15 N 15 3.00 Rain Fog/Mist BKN011 OVC018 51.8 50 94% 29.81 0.0 0.01
05 14:55 N 13 5.00 Light Rain Fog/Mist OVC012 51.8 50 94% 29.81 0.0 0.02
05 14:35 N 15 5.00 Light Rain Fog/Mist OVC010 53.6 51.8 94% 29.8 0.0 0.01
05 14:15 N 10 10.00 Light Drizzle OVC010 53.6 51.8 94% 29.8 0.0
05 13:55 N 8 10.00 Overcast OVC010 53.6 51.8 94% 29.8 0.0
05 13:35 N 7 10.00 Overcast OVC010 53.6 51.8 94% 29.81 0.0
05 13:15 N 7 10.00 Overcast OVC012 53.6 51.8 94% 29.81 0.0
05 12:55 N 8 10.00 Overcast OVC012 53.6 51.8 94% 29.81 0.0
05 12:35 N 6 10.00 Overcast OVC012 53.6 50 88% 29.82 0.0
05 11:55 NE 6 10.00 Overcast BKN012 OVC021 53.6 50 88% 29.82 0.0
05 11:35 N 6 10.00 Overcast BKN010 OVC023 53.6 50 88% 29.82 0.0
05 11:15 NE 10 10.00 Partly Cloudy SCT023 53.6 50 88% 29.8 0.0
05 10:55 NE 13 10.00 Partly Cloudy SCT020 SCT030 SCT050 51.8 50 94% 29.79 0.0 0.03
05 10:35 N 13 10.00 Light Rain SCT020 BKN030 OVC050 51.8 50 94% 29.79 0.0 0.03
05 10:15 N 15 10.00 Light Rain SCT011 BKN029 OVC036 50 48.2 94% 45 29.8 0.0 0.02
05 09:55 N 14 10.00 Rain SCT011 OVC027 51.8 51.8 100% 29.82 0.0 0.16
05 09:35 N 16 5.00 Rain Fog/Mist SCT011 OVC027 53.6 51.8 94% 29.83 0.0 0.1
05 09:15 N 13 5.00 Rain Fog/Mist SCT012 BKN029 OVC042 55.4 51.8 88% 29.82 0.0 0.04
05 08:55 N 9 10.00 Overcast OVC044 57.2 55.4 94% 29.79 0.0
05 08:35 N 7 10.00 Overcast OVC046 59 55.4 88% 29.78 0.0
05 08:15 N 8 10.00 Overcast OVC044 59 55.4 88% 29.77 0.0
05 07:55 N 8 10.00 Overcast OVC044 59 55.4 88% 29.77 0.0
05 07:35 N 8 10.00 Overcast SCT027 OVC044 59 55.4 88% 29.77 0.0
05 07:15 N 8 10.00 Light Rain OVC044 59 59 100% 29.78 0.0
05 06:55 N 7 10.00 Overcast OVC046 59 0 0% 29.75 0.0
05 06:35 Calm 10.00 Overcast SCT048 BKN065 OVC080 59 59 100% 29.74 0.0
05 06:15 S 3 10.00 Overcast BKN080 OVC090 59 59 100% 29.73 0.0
05 05:55 S 6 10.00 Mostly Cloudy SCT055 BKN095 59 59 100% 29.72 0.0
05 05:35 S 7 10.00 Fair CLR 59 57.2 94% 29.73 0.0
Date Time (cdt) Wind (mph) Vis. (mi.) Weather Sky Cond. Air Dwpt Max. Min. Relative Humidity Wind Chill (°F) Heat Index (°F) altimeter (in) sea level (mb) 1 hr 3 hr 6 hr
6 hour
Temperature (ºF) Pressure Precipitation (in)